createdAt,value
2022-09-12T00:01:25.986Z,100.00
2022-09-12T00:04:00.292Z,100.00
2022-09-12T00:06:34.044Z,100.00
2022-09-12T00:09:08.764Z,100.00
2022-09-12T00:11:44.236Z,100.00
2022-09-12T00:14:17.240Z,100.00
2022-09-12T00:16:44.789Z,100.00
2022-09-12T00:19:13.451Z,100.00
2022-09-12T00:21:42.862Z,100.00
2022-09-12T00:24:11.581Z,100.00
2022-09-12T00:26:39.125Z,100.00
2022-09-12T00:29:06.664Z,100.00
2022-09-12T00:31:34.475Z,100.00
2022-09-12T00:34:02.312Z,100.00
2022-09-12T00:36:31.032Z,100.00
2022-09-12T00:38:59.060Z,100.00
2022-09-12T00:41:38.047Z,100.00
2022-09-12T00:44:25.377Z,100.00
2022-09-12T00:47:13.784Z,100.00
2022-09-12T00:50:13.628Z,100.00
2022-09-12T00:52:58.588Z,100.00
2022-09-12T00:55:36.360Z,100.00
2022-09-12T00:58:28.169Z,100.00
2022-09-12T01:00:57.355Z,100.00
2022-09-12T01:03:26.124Z,100.00
2022-09-12T01:06:20.717Z,100.00
2022-09-12T01:08:48.586Z,100.00
2022-09-12T01:11:18.300Z,100.00
2022-09-12T01:13:47.052Z,100.00
2022-09-12T01:16:14.443Z,100.00
2022-09-12T01:19:26.108Z,100.00
2022-09-12T01:23:10.802Z,100.00
2022-09-12T01:26:50.782Z,100.00
2022-09-12T01:29:44.868Z,100.00
2022-09-12T01:32:53.813Z,100.00
2022-09-12T01:35:48.673Z,100.00
2022-09-12T01:38:54.087Z,100.00
2022-09-12T01:42:10.143Z,100.00
2022-09-12T01:45:18.984Z,100.00
2022-09-12T01:48:20.294Z,100.00
2022-09-12T01:51:07.420Z,100.00
2022-09-12T01:54:23.839Z,100.00
2022-09-12T01:56:58.422Z,100.00
2022-09-12T01:59:43.558Z,100.00
2022-09-12T02:02:25.258Z,100.00
2022-09-12T02:05:20.940Z,100.00
2022-09-12T02:08:29.797Z,100.00
2022-09-12T02:11:12.938Z,100.00
2022-09-12T02:13:55.873Z,100.00
2022-09-12T02:16:37.007Z,100.00
2022-09-12T02:19:20.288Z,100.00
2022-09-12T02:22:02.696Z,100.00
2022-09-12T02:24:40.560Z,100.00
2022-09-12T02:27:24.541Z,100.00
2022-09-12T02:29:52.251Z,100.00
2022-09-12T02:32:55.897Z,100.00
2022-09-12T02:35:53.925Z,100.00
2022-09-12T02:38:45.955Z,100.00
2022-09-12T02:41:19.385Z,100.00
2022-09-12T02:43:49.710Z,100.00
2022-09-12T02:46:28.700Z,100.00
2022-09-12T02:48:56.729Z,100.00
2022-09-12T02:51:24.775Z,100.00
2022-09-12T02:53:53.292Z,100.00
2022-09-12T02:56:31.112Z,100.00
2022-09-12T02:59:09.716Z,100.00
2022-09-12T03:02:45.396Z,100.00
2022-09-12T03:05:55.300Z,100.00
2022-09-12T03:09:07.397Z,100.00
2022-09-12T03:12:39.660Z,100.00
2022-09-12T03:16:12.531Z,100.00
2022-09-12T03:19:29.159Z,100.00
2022-09-12T03:22:29.089Z,100.00
2022-09-12T03:25:28.013Z,100.00
2022-09-12T03:28:17.332Z,100.00
2022-09-12T03:30:49.812Z,100.00
2022-09-12T03:33:26.311Z,100.00
2022-09-12T03:35:54.932Z,100.00
2022-09-12T03:38:22.223Z,100.00
2022-09-12T03:40:54.559Z,100.00
2022-09-12T03:43:22.281Z,100.00
2022-09-12T03:45:53.376Z,100.00
2022-09-12T03:48:21.104Z,100.00
2022-09-12T03:50:48.376Z,100.00
2022-09-12T03:53:17.373Z,100.00
2022-09-12T03:55:45.414Z,100.00
2022-09-12T03:58:13.508Z,100.00
2022-09-12T04:00:40.998Z,100.00
2022-09-12T04:03:09.025Z,100.00
2022-09-12T04:05:37.281Z,100.00
2022-09-12T04:08:04.639Z,100.00
2022-09-12T04:10:32.805Z,100.00
2022-09-12T04:13:00.230Z,100.00
2022-09-12T04:15:27.499Z,100.00
2022-09-12T04:17:54.787Z,100.00
2022-09-12T04:20:22.116Z,100.00
2022-09-12T04:22:49.383Z,100.00
2022-09-12T04:25:17.293Z,100.00
2022-09-12T04:27:44.597Z,100.00
2022-09-12T04:30:12.903Z,100.00
2022-09-12T04:32:40.942Z,100.00
2022-09-12T04:35:08.557Z,100.00
2022-09-12T04:37:35.901Z,100.00
2022-09-12T04:40:03.662Z,100.00
2022-09-12T04:42:31.839Z,100.00
2022-09-12T04:44:59.100Z,100.00
2022-09-12T04:47:26.343Z,100.00
2022-09-12T04:49:53.992Z,100.00
2022-09-12T04:52:21.284Z,100.00
2022-09-12T04:54:48.535Z,100.00
2022-09-12T04:57:16.588Z,100.00
2022-09-12T04:59:44.047Z,100.00
2022-09-12T05:02:11.335Z,100.00
2022-09-12T05:04:38.663Z,100.00
2022-09-12T05:07:06.032Z,100.00
2022-09-12T05:09:33.512Z,100.00
2022-09-12T05:12:05.355Z,100.00
2022-09-12T05:14:34.704Z,100.00
2022-09-12T05:17:03.455Z,100.00
2022-09-12T05:19:32.855Z,100.00
2022-09-12T05:22:00.395Z,100.00
2022-09-12T05:24:28.372Z,100.00
2022-09-12T05:26:55.984Z,100.00
2022-09-12T05:29:25.077Z,100.00
2022-09-12T05:31:52.855Z,100.00
2022-09-12T05:34:21.552Z,100.00
2022-09-12T05:36:49.271Z,100.00
2022-09-12T05:39:16.773Z,100.00
2022-09-12T05:41:44.106Z,100.00
2022-09-12T05:44:14.569Z,100.00
2022-09-12T05:46:48.635Z,100.00
2022-09-12T05:49:15.896Z,100.00
2022-09-12T05:51:45.985Z,100.00
2022-09-12T05:54:20.427Z,100.00
2022-09-12T05:56:49.116Z,100.00
2022-09-12T05:59:21.303Z,100.00
2022-09-12T06:01:49.124Z,100.00
2022-09-12T06:04:17.149Z,100.00
2022-09-12T06:06:46.528Z,100.00
2022-09-12T06:09:17.999Z,100.00
2022-09-12T06:11:46.814Z,100.00
2022-09-12T06:14:17.568Z,100.00
2022-09-12T06:16:45.427Z,100.00
2022-09-12T06:19:26.185Z,100.00
2022-09-12T06:21:53.929Z,100.00
2022-09-12T06:24:21.899Z,100.00
2022-09-12T06:26:53.447Z,100.00
2022-09-12T06:29:24.057Z,100.00
2022-09-12T06:31:51.371Z,100.00
2022-09-12T06:34:19.557Z,100.00
2022-09-12T06:36:50.135Z,100.00
2022-09-12T06:39:21.064Z,100.00
2022-09-12T06:41:52.513Z,100.00
2022-09-12T06:44:23.053Z,100.00
2022-09-12T06:46:50.628Z,100.00
2022-09-12T06:49:18.117Z,100.00
2022-09-12T06:51:45.730Z,100.00
2022-09-12T06:54:16.777Z,100.00
2022-09-12T06:56:45.464Z,100.00
2022-09-12T06:59:13.175Z,100.00
2022-09-12T07:01:41.780Z,100.00
2022-09-12T07:04:09.933Z,100.00
2022-09-12T07:06:44.589Z,100.00
2022-09-12T07:09:17.979Z,100.00
2022-09-12T07:11:46.675Z,100.00
2022-09-12T07:14:15.865Z,100.00
2022-09-12T07:16:43.839Z,100.00
2022-09-12T07:19:12.075Z,100.00
2022-09-12T07:21:40.431Z,100.00
2022-09-12T07:24:10.750Z,100.00
2022-09-12T07:26:40.749Z,100.00
2022-09-12T07:29:36.403Z,100.00
2022-09-12T07:32:05.982Z,100.00
2022-09-12T07:34:35.087Z,100.00
2022-09-12T07:37:02.488Z,100.00
2022-09-12T07:39:29.796Z,100.00
2022-09-12T07:41:57.871Z,100.00
2022-09-12T07:44:26.875Z,100.00
2022-09-12T07:46:54.143Z,100.00
2022-09-12T07:49:22.203Z,100.00
2022-09-12T07:51:49.829Z,100.00
2022-09-12T07:54:17.706Z,100.00
2022-09-12T07:56:46.686Z,100.00
2022-09-12T07:59:21.541Z,100.00
2022-09-12T08:01:57.425Z,100.00
2022-09-12T08:04:24.924Z,100.00
2022-09-12T08:06:52.254Z,100.00
2022-09-12T08:09:19.522Z,100.00
2022-09-12T08:11:49.322Z,100.00
2022-09-12T08:14:17.759Z,100.00
2022-09-12T08:16:45.032Z,100.00
2022-09-12T08:19:12.370Z,100.00
2022-09-12T08:21:39.636Z,100.00
2022-09-12T08:24:07.602Z,100.00
2022-09-12T08:26:38.883Z,100.00
2022-09-12T08:29:06.191Z,100.00
2022-09-12T08:31:37.093Z,100.00
2022-09-12T08:34:06.522Z,100.00
2022-09-12T08:36:35.226Z,100.00
2022-09-12T08:39:07.592Z,100.00
2022-09-12T08:41:48.270Z,100.00
2022-09-12T08:45:17.973Z,100.00
2022-09-12T08:47:47.472Z,100.00
2022-09-12T08:50:22.346Z,100.00
2022-09-12T08:53:11.613Z,100.00
2022-09-12T08:55:56.039Z,100.00
2022-09-12T08:58:27.220Z,100.00
2022-09-12T09:01:38.481Z,100.00
2022-09-12T09:04:46.093Z,100.00
2022-09-12T09:08:36.075Z,100.00
2022-09-12T09:12:23.199Z,100.00
2022-09-12T09:15:41.904Z,100.00
2022-09-12T09:18:28.810Z,100.00
2022-09-12T09:21:57.468Z,100.00
2022-09-12T09:24:45.880Z,100.00
2022-09-12T09:27:55.912Z,100.00
2022-09-12T09:30:23.799Z,100.00
2022-09-12T09:32:58.621Z,100.00
2022-09-12T09:35:52.381Z,100.00
2022-09-12T09:38:54.958Z,100.00
2022-09-12T09:42:15.499Z,100.00
2022-09-12T09:44:44.228Z,100.00
2022-09-12T09:47:12.409Z,100.00
2022-09-12T09:49:40.751Z,100.00
2022-09-12T09:52:14.561Z,100.00
2022-09-12T09:54:57.437Z,100.00
2022-09-12T09:57:37.112Z,100.00
2022-09-12T10:00:38.852Z,100.00
2022-09-12T10:03:39.108Z,100.00
2022-09-12T10:06:34.360Z,100.00
2022-09-12T10:09:15.738Z,100.00
2022-09-12T10:11:45.923Z,100.00
2022-09-12T10:14:41.808Z,100.00
2022-09-12T10:17:44.678Z,100.00
2022-09-12T10:20:44.887Z,100.00
2022-09-12T10:23:37.864Z,100.00
2022-09-12T10:26:16.650Z,100.00
2022-09-12T10:29:31.652Z,100.00
2022-09-12T10:32:05.786Z,100.00
2022-09-12T10:34:45.436Z,100.00
2022-09-12T10:37:37.378Z,100.00
2022-09-12T10:40:22.337Z,99.51
2022-09-12T10:43:00.311Z,96.88
2022-09-12T10:45:35.971Z,86.62
2022-09-12T10:48:33.253Z,87.93
2022-09-12T10:51:01.998Z,93.68
2022-09-12T10:53:43.725Z,84.90
2022-09-12T10:56:39.792Z,85.85
2022-09-12T11:00:07.704Z,84.05
2022-09-12T11:04:08.737Z,78.22
2022-09-12T11:07:32.988Z,70.29
2022-09-12T11:11:10.033Z,70.03
2022-09-12T11:14:43.539Z,63.75
2022-09-12T11:18:33.745Z,60.86
2022-09-12T11:21:50.533Z,61.35
2022-09-12T11:24:55.009Z,58.07
2022-09-12T11:27:45.218Z,56.55
2022-09-12T11:30:18.031Z,51.45
2022-09-12T11:33:26.771Z,54.91
2022-09-12T11:35:57.302Z,52.14
2022-09-12T11:39:17.645Z,51.78
2022-09-12T11:41:51.250Z,51.67
2022-09-12T11:44:41.571Z,46.86
2022-09-12T11:47:13.951Z,48.55
2022-09-12T11:49:50.076Z,45.02
2022-09-12T11:52:28.057Z,44.00
2022-09-12T11:55:17.172Z,41.25
2022-09-12T11:57:58.562Z,40.00
2022-09-12T12:00:37.589Z,36.78
2022-09-12T12:03:20.837Z,37.37
2022-09-12T12:06:22.119Z,40.17
2022-09-12T12:08:50.637Z,37.01
2022-09-12T12:11:48.889Z,37.80
2022-09-12T12:14:44.555Z,36.23
2022-09-12T12:17:30.433Z,37.08
2022-09-12T12:20:08.515Z,37.36
2022-09-12T12:22:36.394Z,36.70
2022-09-12T12:25:29.478Z,36.17
2022-09-12T12:28:01.820Z,36.17
2022-09-12T12:30:33.402Z,33.85
2022-09-12T12:33:26.962Z,34.24
2022-09-12T12:36:00.201Z,34.27
2022-09-12T12:38:36.452Z,33.62
2022-09-12T12:41:18.828Z,33.89
2022-09-12T12:43:53.148Z,32.08
2022-09-12T12:46:28.552Z,32.61
2022-09-12T12:49:11.913Z,33.97
2022-09-12T12:51:57.179Z,31.46
2022-09-12T12:54:45.216Z,32.65
2022-09-12T12:57:51.055Z,31.86
2022-09-12T13:00:21.108Z,30.97
2022-09-12T13:03:06.647Z,29.74
2022-09-12T13:06:00.186Z,30.23
2022-09-12T13:08:46.868Z,29.69
2022-09-12T13:11:37.453Z,29.01
2022-09-12T13:14:28.410Z,30.51
2022-09-12T13:17:04.048Z,28.73
2022-09-12T13:19:36.802Z,29.64
2022-09-12T13:22:11.021Z,27.87
2022-09-12T13:24:51.538Z,29.20
2022-09-12T13:27:25.670Z,29.25
2022-09-12T13:30:15.538Z,27.80
2022-09-12T13:32:43.847Z,28.24
2022-09-12T13:36:18.269Z,28.41
2022-09-12T13:39:20.082Z,29.79
2022-09-12T13:42:33.545Z,28.86
2022-09-12T13:45:23.212Z,29.43
2022-09-12T13:48:02.986Z,28.19
2022-09-12T13:50:55.337Z,29.13
2022-09-12T13:53:29.058Z,29.20
2022-09-12T13:56:01.329Z,28.48
2022-09-12T13:58:36.982Z,28.38
2022-09-12T14:01:16.207Z,29.71
2022-09-12T14:04:12.027Z,29.54
2022-09-12T14:06:53.149Z,28.76
2022-09-12T14:09:38.561Z,28.75
2022-09-12T14:12:29.517Z,29.16
2022-09-12T14:14:57.289Z,29.57
2022-09-12T14:17:39.702Z,30.34
2022-09-12T14:20:16.524Z,30.44
2022-09-12T14:22:50.917Z,28.48
2022-09-12T14:25:25.149Z,28.87
2022-09-12T14:27:57.408Z,29.39
2022-09-12T14:30:37.611Z,29.73
2022-09-12T14:33:10.629Z,30.09
2022-09-12T14:36:27.484Z,29.23
2022-09-12T14:39:38.541Z,28.15
2022-09-12T14:42:27.101Z,29.32
2022-09-12T14:45:04.046Z,28.97
2022-09-12T14:47:42.053Z,29.23
2022-09-12T14:50:29.700Z,28.29
2022-09-12T14:53:36.971Z,28.60
2022-09-12T14:56:13.634Z,28.40
2022-09-12T14:58:42.573Z,28.44
2022-09-12T15:01:12.167Z,29.10
2022-09-12T15:03:46.033Z,28.21
2022-09-12T15:06:36.785Z,28.80
2022-09-12T15:09:13.125Z,27.69
2022-09-12T15:11:40.626Z,28.43
2022-09-12T15:14:14.235Z,29.37
2022-09-12T15:16:42.233Z,30.05
2022-09-12T15:19:09.683Z,30.16
2022-09-12T15:21:37.564Z,29.55
2022-09-12T15:24:05.147Z,29.36
2022-09-12T15:26:32.412Z,30.09
2022-09-12T15:28:59.920Z,29.54
2022-09-12T15:31:32.289Z,30.55
2022-09-12T15:34:02.489Z,29.90
2022-09-12T15:36:30.027Z,29.96
2022-09-12T15:38:57.546Z,29.54
2022-09-12T15:41:37.373Z,29.77
2022-09-12T15:44:08.016Z,29.25
2022-09-12T15:46:35.499Z,30.11
2022-09-12T15:49:02.958Z,29.93
2022-09-12T15:51:30.328Z,30.47
2022-09-12T15:53:57.608Z,31.55
2022-09-12T15:56:24.908Z,30.36
2022-09-12T15:58:59.148Z,30.20
2022-09-12T16:01:29.254Z,30.75
2022-09-12T16:03:56.832Z,30.53
2022-09-12T16:06:25.153Z,30.46
2022-09-12T16:08:52.484Z,31.07
2022-09-12T16:11:26.005Z,31.45
2022-09-12T16:13:55.051Z,31.39
2022-09-12T16:16:22.917Z,31.81
2022-09-12T16:18:50.364Z,32.05
2022-09-12T16:21:18.048Z,33.11
2022-09-12T16:23:47.340Z,32.75
2022-09-12T16:26:16.885Z,33.90
2022-09-12T16:28:44.467Z,33.79
2022-09-12T16:31:15.659Z,33.92
2022-09-12T16:33:43.006Z,34.18
2022-09-12T16:36:15.708Z,33.72
2022-09-12T16:39:01.530Z,34.32
2022-09-12T16:41:29.151Z,34.77
2022-09-12T16:43:56.561Z,35.29
2022-09-12T16:46:28.840Z,34.57
2022-09-12T16:48:58.759Z,34.54
2022-09-12T16:51:37.604Z,35.40
2022-09-12T16:54:05.183Z,35.54
2022-09-12T16:56:32.477Z,35.89
2022-09-12T16:59:00.899Z,35.33
2022-09-12T17:01:28.370Z,36.03
2022-09-12T17:03:58.607Z,36.34
2022-09-12T17:06:26.967Z,36.86
2022-09-12T17:09:00.770Z,36.77
2022-09-12T17:11:38.150Z,36.77
2022-09-12T17:14:08.739Z,37.15
2022-09-12T17:16:51.548Z,37.66
2022-09-12T17:19:28.131Z,40.30
2022-09-12T17:21:57.463Z,38.51
2022-09-12T17:24:26.734Z,37.86
2022-09-12T17:26:54.541Z,37.85
2022-09-12T17:29:22.082Z,38.58
2022-09-12T17:31:49.648Z,38.79
2022-09-12T17:34:17.745Z,38.65
2022-09-12T17:36:46.227Z,39.25
2022-09-12T17:39:14.603Z,39.78
2022-09-12T17:41:42.837Z,40.03
2022-09-12T17:44:15.163Z,41.36
2022-09-12T17:46:43.256Z,41.10
2022-09-12T17:49:18.531Z,42.27
2022-09-12T17:51:45.932Z,42.19
2022-09-12T17:54:20.804Z,41.76
2022-09-12T17:56:49.772Z,43.11
2022-09-12T17:59:22.159Z,43.30
2022-09-12T18:02:08.592Z,42.60
2022-09-12T18:04:36.021Z,44.09
2022-09-12T18:07:04.983Z,44.16
2022-09-12T18:09:32.648Z,44.37
2022-09-12T18:11:59.948Z,45.82
2022-09-12T18:14:29.079Z,45.11
2022-09-12T18:16:57.308Z,44.89
2022-09-12T18:19:25.224Z,45.75
2022-09-12T18:21:53.403Z,46.52
2022-09-12T18:24:21.008Z,46.70
2022-09-12T18:26:49.393Z,47.11
2022-09-12T18:29:17.602Z,47.26
2022-09-12T18:31:49.173Z,49.44
2022-09-12T18:34:18.061Z,49.32
2022-09-12T18:36:50.870Z,49.16
2022-09-12T18:39:18.534Z,49.60
2022-09-12T18:41:46.407Z,51.77
2022-09-12T18:44:14.239Z,52.35
2022-09-12T18:46:41.865Z,53.83
2022-09-12T18:49:09.593Z,56.52
2022-09-12T18:51:39.957Z,59.12
2022-09-12T18:54:14.365Z,62.20
2022-09-12T18:56:43.864Z,63.09
2022-09-12T18:59:15.180Z,65.08
2022-09-12T19:01:43.697Z,66.46
2022-09-12T19:04:14.402Z,68.07
2022-09-12T19:06:48.580Z,73.34
2022-09-12T19:09:20.994Z,72.85
2022-09-12T19:11:49.661Z,76.07
2022-09-12T19:14:26.165Z,77.97
2022-09-12T19:16:54.165Z,79.06
2022-09-12T19:19:21.916Z,80.95
2022-09-12T19:21:49.187Z,85.83
2022-09-12T19:24:17.225Z,88.40
2022-09-12T19:26:45.403Z,92.20
2022-09-12T19:29:14.675Z,97.59
2022-09-12T19:31:43.148Z,100.00
2022-09-12T19:34:11.569Z,99.93
2022-09-12T19:36:47.706Z,99.70
2022-09-12T19:39:19.625Z,100.00
2022-09-12T19:41:47.886Z,100.00
2022-09-12T19:44:15.245Z,100.00
2022-09-12T19:46:42.832Z,100.00
2022-09-12T19:49:12.797Z,100.00
2022-09-12T19:51:40.668Z,100.00
2022-09-12T19:54:08.071Z,100.00
2022-09-12T19:56:35.384Z,100.00
2022-09-12T19:59:02.855Z,100.00
2022-09-12T20:01:30.247Z,100.00
2022-09-12T20:03:58.893Z,100.00
2022-09-12T20:06:27.414Z,100.00
2022-09-12T20:08:56.722Z,100.00
2022-09-12T20:11:25.795Z,100.00
2022-09-12T20:13:53.547Z,100.00
2022-09-12T20:16:29.356Z,100.00
2022-09-12T20:19:08.387Z,100.00
2022-09-12T20:21:36.939Z,100.00
2022-09-12T20:24:12.613Z,100.00
2022-09-12T20:26:41.255Z,100.00
2022-09-12T20:29:10.111Z,100.00
2022-09-12T20:31:40.876Z,100.00
2022-09-12T20:34:19.548Z,100.00
2022-09-12T20:36:48.100Z,100.00
2022-09-12T20:39:20.851Z,100.00
2022-09-12T20:41:48.685Z,100.00
2022-09-12T20:44:16.608Z,100.00
2022-09-12T20:46:43.962Z,100.00
2022-09-12T20:49:11.384Z,100.00
2022-09-12T20:51:38.936Z,100.00
2022-09-12T20:54:07.831Z,100.00
2022-09-12T20:56:37.606Z,100.00
2022-09-12T20:59:05.822Z,100.00
2022-09-12T21:01:34.048Z,100.00
2022-09-12T21:04:02.176Z,100.00
2022-09-12T21:06:30.444Z,100.00
2022-09-12T21:08:59.795Z,100.00
2022-09-12T21:11:29.729Z,100.00
2022-09-12T21:13:58.143Z,100.00
2022-09-12T21:16:25.500Z,100.00
2022-09-12T21:18:59.528Z,100.00
2022-09-12T21:21:27.391Z,100.00
2022-09-12T21:24:02.660Z,100.00
2022-09-12T21:26:30.643Z,100.00
2022-09-12T21:28:58.589Z,100.00
2022-09-12T21:31:26.898Z,100.00
2022-09-12T21:33:54.454Z,100.00
2022-09-12T21:36:21.868Z,100.00
2022-09-12T21:38:50.050Z,100.00
2022-09-12T21:41:18.380Z,100.00
2022-09-12T21:43:45.813Z,100.00
2022-09-12T21:46:14.215Z,100.00
2022-09-12T21:48:43.398Z,100.00
2022-09-12T21:51:11.532Z,100.00
2022-09-12T21:53:38.802Z,100.00
2022-09-12T21:56:08.910Z,100.00
2022-09-12T21:58:37.702Z,100.00
2022-09-12T22:01:08.570Z,100.00
2022-09-12T22:03:35.924Z,100.00
2022-09-12T22:06:06.776Z,100.00
2022-09-12T22:08:36.105Z,100.00
2022-09-12T22:11:09.569Z,100.00
2022-09-12T22:13:43.339Z,100.00
2022-09-12T22:16:11.469Z,100.00
2022-09-12T22:18:38.996Z,100.00
2022-09-12T22:21:17.041Z,100.00
2022-09-12T22:24:03.518Z,100.00
2022-09-12T22:26:37.253Z,100.00
2022-09-12T22:29:04.499Z,100.00
2022-09-12T22:31:32.057Z,100.00
2022-09-12T22:33:59.618Z,100.00
2022-09-12T22:36:31.283Z,100.00
2022-09-12T22:39:00.227Z,100.00
2022-09-12T22:41:28.478Z,100.00
2022-09-12T22:43:57.404Z,100.00
2022-09-12T22:46:26.369Z,100.00
2022-09-12T22:48:55.716Z,100.00
2022-09-12T22:51:23.136Z,100.00
2022-09-12T22:53:51.537Z,100.00
2022-09-12T22:56:19.209Z,100.00
2022-09-12T22:58:46.577Z,100.00
2022-09-12T23:01:14.047Z,100.00
2022-09-12T23:03:41.487Z,100.00
2022-09-12T23:06:10.012Z,100.00
2022-09-12T23:08:40.661Z,100.00
2022-09-12T23:11:19.157Z,100.00
2022-09-12T23:13:49.909Z,100.00
2022-09-12T23:16:23.573Z,100.00
2022-09-12T23:18:52.634Z,100.00
2022-09-12T23:21:22.356Z,100.00
2022-09-12T23:23:50.026Z,100.00
2022-09-12T23:26:28.157Z,100.00
2022-09-12T23:29:02.211Z,100.00
2022-09-12T23:31:33.366Z,100.00
2022-09-12T23:34:06.195Z,100.00
2022-09-12T23:36:35.156Z,100.00
2022-09-12T23:39:02.559Z,100.00
2022-09-12T23:41:29.865Z,100.00
2022-09-12T23:43:58.584Z,100.00
2022-09-12T23:46:25.866Z,100.00
2022-09-12T23:48:53.573Z,100.00
2022-09-12T23:51:24.252Z,100.00
2022-09-12T23:53:51.571Z,100.00
2022-09-12T23:56:18.829Z,100.00
2022-09-12T23:58:46.089Z,100.00
